createdAt,value
2022-10-18T00:01:34.203Z,78.17
2022-10-18T00:04:01.981Z,78.17
2022-10-18T00:06:29.779Z,78.33
2022-10-18T00:08:57.536Z,78.51
2022-10-18T00:11:25.322Z,78.48
2022-10-18T00:13:53.061Z,78.68
2022-10-18T00:16:20.850Z,78.80
2022-10-18T00:18:48.765Z,78.74
2022-10-18T00:21:20.233Z,78.80
2022-10-18T00:23:49.647Z,78.84
2022-10-18T00:26:20.304Z,78.79
2022-10-18T00:28:53.034Z,78.97
2022-10-18T00:31:37.093Z,78.90
2022-10-18T00:34:14.493Z,78.85
2022-10-18T00:36:43.274Z,78.72
2022-10-18T00:39:17.630Z,78.50
2022-10-18T00:41:46.155Z,78.28
2022-10-18T00:44:13.839Z,78.11
2022-10-18T00:46:45.435Z,77.97
2022-10-18T00:49:21.111Z,78.01
2022-10-18T00:52:10.881Z,78.08
2022-10-18T00:54:42.487Z,78.13
2022-10-18T00:57:11.149Z,78.59
2022-10-18T00:59:39.504Z,78.86
2022-10-18T01:02:07.831Z,78.87
2022-10-18T01:04:35.769Z,78.99
2022-10-18T01:07:41.625Z,78.80
2022-10-18T01:10:31.073Z,78.83
2022-10-18T01:13:25.912Z,78.64
2022-10-18T01:16:01.966Z,78.48
2022-10-18T01:19:00.295Z,78.22
2022-10-18T01:21:27.939Z,78.11
2022-10-18T01:24:59.611Z,78.10
2022-10-18T01:27:53.675Z,77.99
2022-10-18T01:30:38.369Z,77.73
2022-10-18T01:33:34.108Z,78.28
2022-10-18T01:36:20.572Z,78.63
2022-10-18T01:38:52.644Z,78.63
2022-10-18T01:41:22.901Z,78.45
2022-10-18T01:43:55.533Z,78.41
2022-10-18T01:46:25.853Z,78.40
2022-10-18T01:48:55.023Z,78.59
2022-10-18T01:51:32.278Z,78.35
2022-10-18T01:54:00.763Z,78.00
2022-10-18T01:56:57.926Z,78.09
2022-10-18T01:59:47.421Z,78.11
2022-10-18T02:02:56.304Z,78.90
2022-10-18T02:05:42.778Z,79.48
2022-10-18T02:08:26.916Z,79.87
2022-10-18T02:11:07.554Z,80.41
2022-10-18T02:13:58.675Z,80.46
2022-10-18T02:16:35.245Z,80.50
2022-10-18T02:19:17.357Z,80.58
2022-10-18T02:21:45.932Z,80.70
2022-10-18T02:24:14.992Z,80.63
2022-10-18T02:26:43.097Z,80.58
2022-10-18T02:29:11.522Z,80.30
2022-10-18T02:31:57.346Z,80.04
2022-10-18T02:34:33.817Z,79.98
2022-10-18T02:37:02.600Z,80.18
2022-10-18T02:39:40.843Z,80.61
2022-10-18T02:42:10.927Z,80.71
2022-10-18T02:44:39.260Z,80.81
2022-10-18T02:47:11.875Z,80.69
2022-10-18T02:49:39.566Z,80.44
2022-10-18T02:52:07.433Z,80.37
2022-10-18T02:54:35.234Z,79.72
2022-10-18T02:57:02.903Z,79.37
2022-10-18T02:59:30.728Z,79.35
2022-10-18T03:01:58.374Z,79.87
2022-10-18T03:04:26.057Z,80.07
2022-10-18T03:06:53.709Z,80.54
2022-10-18T03:09:21.475Z,80.98
2022-10-18T03:11:49.134Z,80.79
2022-10-18T03:14:16.801Z,80.87
2022-10-18T03:16:44.467Z,81.37
2022-10-18T03:19:12.327Z,81.64
2022-10-18T03:21:40.027Z,81.87
2022-10-18T03:24:07.929Z,81.92
2022-10-18T03:26:35.600Z,82.00
2022-10-18T03:29:03.670Z,81.99
2022-10-18T03:31:32.489Z,81.86
2022-10-18T03:34:00.324Z,81.72
2022-10-18T03:36:28.129Z,81.49
2022-10-18T03:38:55.805Z,81.21
2022-10-18T03:41:23.522Z,80.54
2022-10-18T03:43:51.321Z,79.78
2022-10-18T03:46:19.063Z,79.40
2022-10-18T03:48:46.825Z,79.05
2022-10-18T03:51:14.588Z,79.09
2022-10-18T03:53:42.291Z,78.84
2022-10-18T03:56:09.995Z,78.62
2022-10-18T03:58:37.767Z,79.07
2022-10-18T04:01:05.640Z,79.71
2022-10-18T04:03:33.300Z,79.98
2022-10-18T04:11:11.197Z,80.74
2022-10-18T04:13:39.035Z,81.08
2022-10-18T04:16:07.127Z,81.41
2022-10-18T04:18:34.978Z,81.58
2022-10-18T04:21:02.713Z,81.96
2022-10-18T04:23:31.856Z,82.25
2022-10-18T04:26:02.907Z,82.40
2022-10-18T04:28:30.773Z,82.32
2022-10-18T04:30:58.505Z,82.48
2022-10-18T04:33:26.258Z,82.55
2022-10-18T04:35:54.030Z,82.69
2022-10-18T04:38:21.790Z,82.93
2022-10-18T04:40:50.047Z,83.05
2022-10-18T04:43:17.844Z,83.13
2022-10-18T04:45:46.619Z,82.98
2022-10-18T04:48:15.392Z,82.92
2022-10-18T04:50:51.172Z,82.86
2022-10-18T04:53:22.805Z,82.79
2022-10-18T04:55:51.183Z,82.90
2022-10-18T04:58:21.529Z,83.30
2022-10-18T05:00:50.392Z,83.72
2022-10-18T05:03:18.462Z,83.95
2022-10-18T05:06:02.979Z,84.08
2022-10-18T05:08:33.163Z,84.32
2022-10-18T05:11:01.211Z,84.39
2022-10-18T05:13:29.958Z,84.29
2022-10-18T05:15:59.635Z,84.10
2022-10-18T05:18:27.694Z,83.92
2022-10-18T05:20:55.369Z,83.88
2022-10-18T05:23:23.124Z,83.84
2022-10-18T05:25:51.344Z,83.78
2022-10-18T05:28:38.656Z,83.77
2022-10-18T05:31:09.516Z,83.74
2022-10-18T05:33:37.360Z,83.65
2022-10-18T05:36:05.282Z,83.58
2022-10-18T05:38:33.222Z,83.49
2022-10-18T05:41:05.570Z,83.53
2022-10-18T05:43:33.526Z,84.22
2022-10-18T05:46:01.486Z,81.30
2022-10-18T05:48:29.219Z,79.07
2022-10-18T05:51:00.678Z,79.15
2022-10-18T05:53:36.601Z,79.33
2022-10-18T06:04:13.475Z,75.75
2022-10-18T06:06:39.990Z,73.55
2022-10-18T06:09:08.077Z,70.81
2022-10-18T06:11:36.301Z,70.45
2022-10-18T06:14:03.783Z,71.04
2022-10-18T06:16:32.670Z,71.75
2022-10-18T06:18:59.668Z,72.18
2022-10-18T06:21:26.434Z,72.64
2022-10-18T06:23:58.811Z,72.85
2022-10-18T06:26:27.157Z,73.21
2022-10-18T06:28:53.564Z,73.65
2022-10-18T06:31:20.724Z,74.11
2022-10-18T06:33:47.143Z,74.56
2022-10-18T06:36:16.884Z,74.89
2022-10-18T06:38:43.638Z,75.21
2022-10-18T06:41:10.188Z,75.49
2022-10-18T06:43:36.605Z,75.69
2022-10-18T06:46:06.180Z,76.07
2022-10-18T06:48:34.809Z,76.16
2022-10-18T06:51:04.728Z,76.44
2022-10-18T06:53:35.243Z,76.52
2022-10-18T06:56:08.364Z,76.70
2022-10-18T06:58:35.041Z,76.92
2022-10-18T07:01:20.165Z,77.13
2022-10-18T07:03:49.037Z,77.38
2022-10-18T07:06:18.276Z,77.57
2022-10-18T07:08:46.187Z,77.86
2022-10-18T07:11:19.370Z,78.02
2022-10-18T07:13:47.005Z,78.14
2022-10-18T07:16:18.471Z,78.25
2022-10-18T07:18:49.115Z,78.19
2022-10-18T07:21:19.475Z,78.24
2022-10-18T07:23:46.908Z,78.33
2022-10-18T07:26:17.433Z,78.43
2022-10-18T07:28:46.654Z,78.51
2022-10-18T07:31:13.464Z,78.52
2022-10-18T07:33:42.345Z,78.59
2022-10-18T07:36:11.034Z,78.54
2022-10-18T07:38:37.774Z,78.53
2022-10-18T07:41:06.508Z,78.45
2022-10-18T07:43:35.995Z,78.47
2022-10-18T07:46:05.585Z,78.50
2022-10-18T07:48:32.419Z,78.47
2022-10-18T07:51:00.820Z,78.54
2022-10-18T07:53:35.432Z,78.55
2022-10-18T07:56:08.568Z,78.51
2022-10-18T07:58:36.377Z,78.50
2022-10-18T08:01:07.842Z,78.54
2022-10-18T08:03:36.453Z,78.27
2022-10-18T08:06:05.623Z,78.31
2022-10-18T08:08:32.089Z,78.28
2022-10-18T08:11:14.452Z,77.93
2022-10-18T08:13:42.065Z,77.86
2022-10-18T08:16:17.202Z,77.91
2022-10-18T08:18:44.123Z,77.99
2022-10-18T08:21:12.534Z,78.03
2022-10-18T08:23:39.582Z,78.01
2022-10-18T08:26:10.608Z,77.86
2022-10-18T08:28:38.736Z,77.65
2022-10-18T08:31:09.203Z,77.43
2022-10-18T08:33:35.762Z,77.25
2022-10-18T08:36:05.421Z,77.15
2022-10-18T08:38:34.538Z,77.10
2022-10-18T08:41:48.205Z,77.03
2022-10-18T08:44:26.578Z,77.01
2022-10-18T08:47:16.607Z,77.10
2022-10-18T08:49:57.478Z,77.18
2022-10-18T08:53:08.196Z,77.14
2022-10-18T08:55:40.798Z,76.79
2022-10-18T08:58:30.344Z,76.76
2022-10-18T09:01:11.733Z,76.56
2022-10-18T09:03:48.159Z,76.40
2022-10-18T09:06:21.279Z,76.04
2022-10-18T09:09:12.265Z,75.90
2022-10-18T09:11:44.765Z,75.49
2022-10-18T09:14:48.173Z,75.33
2022-10-18T09:17:24.573Z,74.95
2022-10-18T09:20:35.481Z,74.84
2022-10-18T09:23:37.618Z,74.78
2022-10-18T09:26:16.366Z,74.62
2022-10-18T09:29:25.708Z,74.54
2022-10-18T09:32:32.355Z,74.38
2022-10-18T09:35:19.456Z,74.20
2022-10-18T09:37:46.989Z,74.20
2022-10-18T09:40:25.044Z,74.11
2022-10-18T09:42:55.422Z,74.09
2022-10-18T09:45:43.082Z,74.10
2022-10-18T09:48:40.152Z,74.11
2022-10-18T09:51:21.708Z,74.20
2022-10-18T09:54:32.746Z,74.29
2022-10-18T09:57:11.893Z,74.46
2022-10-18T09:59:50.069Z,74.62
2022-10-18T10:02:23.190Z,74.77
2022-10-18T10:04:51.042Z,75.01
2022-10-18T10:07:21.006Z,75.35
2022-10-18T10:10:04.054Z,75.69
2022-10-18T10:12:35.375Z,76.04
2022-10-18T10:15:27.011Z,76.38
2022-10-18T10:17:58.355Z,76.77
2022-10-18T10:20:50.516Z,77.06
2022-10-18T10:23:29.721Z,77.37
2022-10-18T10:26:06.947Z,77.64
2022-10-18T10:28:36.833Z,77.87
2022-10-18T10:31:31.291Z,78.11
2022-10-18T10:34:14.624Z,78.38
2022-10-18T10:36:49.892Z,78.68
2022-10-18T10:39:19.709Z,78.94
2022-10-18T10:41:58.225Z,79.25
2022-10-18T10:44:29.785Z,79.53
2022-10-18T10:46:56.956Z,79.82
2022-10-18T10:49:42.303Z,80.10
2022-10-18T10:52:27.307Z,80.37
2022-10-18T10:55:30.734Z,80.57
2022-10-18T10:57:49.696Z,80.76
2022-10-18T11:00:43.918Z,80.86
2022-10-18T11:03:33.765Z,80.65
2022-10-18T11:06:01.289Z,80.69
2022-10-18T11:08:43.534Z,80.83
2022-10-18T11:11:28.755Z,81.28
2022-10-18T11:14:25.893Z,81.56
2022-10-18T11:17:08.316Z,81.79
2022-10-18T11:19:58.338Z,81.66
2022-10-18T11:22:27.687Z,81.23
2022-10-18T11:24:54.853Z,81.59
2022-10-18T11:27:27.746Z,82.00
2022-10-18T11:30:22.405Z,82.39
2022-10-18T11:32:58.013Z,82.46
2022-10-18T11:35:35.544Z,82.57
2022-10-18T11:38:13.828Z,82.76
2022-10-18T11:41:02.058Z,83.04
2022-10-18T11:44:02.358Z,83.07
2022-10-18T11:46:42.252Z,82.92
2022-10-18T11:49:17.381Z,82.42
2022-10-18T11:52:12.848Z,82.48
2022-10-18T11:55:14.702Z,82.32
2022-10-18T11:58:05.756Z,81.95
2022-10-18T12:00:48.580Z,81.64
2022-10-18T12:03:18.398Z,81.57
2022-10-18T12:05:47.652Z,81.58
2022-10-18T12:08:28.707Z,82.41
2022-10-18T12:11:06.043Z,82.68
2022-10-18T12:13:51.228Z,82.77
2022-10-18T12:16:33.453Z,82.71
2022-10-18T12:19:26.302Z,82.56
2022-10-18T12:21:57.202Z,82.40
2022-10-18T12:24:30.063Z,82.12
2022-10-18T12:27:00.193Z,82.25
2022-10-18T12:29:50.516Z,82.42
2022-10-18T12:32:25.842Z,82.30
2022-10-18T12:35:06.704Z,82.52
2022-10-18T12:38:11.618Z,82.43
2022-10-18T12:40:43.142Z,82.47
2022-10-18T12:43:20.867Z,82.40
2022-10-18T12:45:57.856Z,82.33
2022-10-18T12:49:02.342Z,82.55
2022-10-18T12:51:28.915Z,82.62
2022-10-18T12:54:17.342Z,82.67
2022-10-18T12:56:46.891Z,82.78
2022-10-18T12:59:14.724Z,83.08
2022-10-18T13:01:51.649Z,83.38
2022-10-18T13:04:28.785Z,83.32
2022-10-18T13:07:05.615Z,83.16
2022-10-18T13:09:41.498Z,83.35
2022-10-18T13:12:09.270Z,83.49
2022-10-18T13:14:53.448Z,83.58
2022-10-18T13:18:03.899Z,83.67
2022-10-18T13:20:43.347Z,83.48
2022-10-18T13:23:55.954Z,83.47
2022-10-18T13:26:41.946Z,83.77
2022-10-18T13:29:41.600Z,83.91
2022-10-18T13:32:28.182Z,83.99
2022-10-18T13:34:56.235Z,84.12
2022-10-18T13:37:25.747Z,84.23
2022-10-18T13:40:25.156Z,84.21
2022-10-18T13:42:53.053Z,84.11
2022-10-18T13:45:33.160Z,84.13
2022-10-18T13:48:29.219Z,84.29
2022-10-18T13:51:07.130Z,84.36
2022-10-18T13:54:32.063Z,84.40
2022-10-18T13:57:41.096Z,84.44
2022-10-18T14:00:37.162Z,84.51
2022-10-18T14:03:55.026Z,84.55
2022-10-18T14:06:19.198Z,84.57
2022-10-18T14:09:26.089Z,84.50
2022-10-18T14:12:44.272Z,84.50
2022-10-18T14:15:24.413Z,84.46
2022-10-18T14:17:56.262Z,84.45
2022-10-18T14:20:49.090Z,84.49
2022-10-18T14:23:37.039Z,84.47
2022-10-18T14:26:19.905Z,84.51
2022-10-18T14:29:04.332Z,84.51
2022-10-18T14:31:32.844Z,84.49
2022-10-18T14:34:01.119Z,84.54
2022-10-18T14:36:41.152Z,84.60
2022-10-18T14:39:21.231Z,84.69
2022-10-18T14:41:53.136Z,84.67
2022-10-18T14:44:31.594Z,84.63
2022-10-18T14:47:15.702Z,84.62
2022-10-18T14:49:45.363Z,84.55
2022-10-18T14:52:18.107Z,84.52
2022-10-18T14:54:46.421Z,84.51
2022-10-18T14:57:23.730Z,84.51
2022-10-18T14:59:58.187Z,84.52
2022-10-18T15:02:28.411Z,84.53
2022-10-18T15:05:09.375Z,84.58
2022-10-18T15:07:37.450Z,84.66
2022-10-18T15:10:06.085Z,84.72
2022-10-18T15:12:45.643Z,84.77
2022-10-18T15:15:30.708Z,84.80
2022-10-18T15:17:59.441Z,84.85
2022-10-18T15:20:32.465Z,84.93
2022-10-18T15:23:35.949Z,84.97
2022-10-18T15:26:10.134Z,85.00
2022-10-18T15:28:54.435Z,85.04
2022-10-18T15:31:29.318Z,85.07
2022-10-18T15:34:22.423Z,85.07
2022-10-18T15:36:51.393Z,85.09
2022-10-18T15:39:30.710Z,85.09
2022-10-18T15:42:01.651Z,85.10
2022-10-18T15:44:51.751Z,85.11
2022-10-18T15:47:21.889Z,85.11
2022-10-18T15:49:58.502Z,85.11
2022-10-18T15:52:48.105Z,85.10
2022-10-18T15:55:31.403Z,85.10
2022-10-18T15:58:09.898Z,85.13
2022-10-18T16:00:37.796Z,85.15
2022-10-18T16:03:09.383Z,85.18
2022-10-18T16:05:38.538Z,85.26
2022-10-18T16:08:06.850Z,85.25
2022-10-18T16:10:34.843Z,85.28
2022-10-18T16:13:05.478Z,85.28
2022-10-18T16:15:33.381Z,85.30
2022-10-18T16:18:01.285Z,85.30
2022-10-18T16:20:29.155Z,85.33
2022-10-18T16:22:56.971Z,85.31
2022-10-18T16:25:24.941Z,85.35
2022-10-18T16:27:52.873Z,85.40
2022-10-18T16:30:21.283Z,85.49
2022-10-18T16:32:49.149Z,85.57
2022-10-18T16:35:17.182Z,85.62
2022-10-18T16:37:44.946Z,85.70
2022-10-18T16:40:25.193Z,85.74
2022-10-18T16:42:52.922Z,85.81
2022-10-18T16:45:20.694Z,85.84
2022-10-18T16:47:48.381Z,85.91
2022-10-18T16:50:18.942Z,86.01
2022-10-18T16:52:46.719Z,86.09
2022-10-18T16:55:17.232Z,86.15
2022-10-18T16:57:44.944Z,86.18
2022-10-18T17:00:22.991Z,86.22
2022-10-18T17:02:51.260Z,86.29
2022-10-18T17:05:19.377Z,86.34
2022-10-18T17:07:47.635Z,86.37
2022-10-18T17:10:20.129Z,86.34
2022-10-18T17:12:47.904Z,86.32
2022-10-18T17:15:15.977Z,86.33
2022-10-18T17:17:43.998Z,86.33
2022-10-18T17:20:32.363Z,86.33
2022-10-18T17:23:00.146Z,86.31
2022-10-18T17:28:18.238Z,86.11
2022-10-18T17:31:20.688Z,86.05
2022-10-18T17:37:10.508Z,86.00
2022-10-18T17:39:42.001Z,85.97
2022-10-18T17:42:56.841Z,85.93
2022-10-18T17:46:17.381Z,85.83
2022-10-18T17:53:30.648Z,85.69
2022-10-18T17:56:11.058Z,85.46
2022-10-18T17:58:49.661Z,85.18
2022-10-18T18:01:26.448Z,84.90
2022-10-18T18:04:00.128Z,84.73
2022-10-18T18:06:40.603Z,84.57
2022-10-18T18:09:14.826Z,84.44
2022-10-18T18:11:48.875Z,84.28
2022-10-18T18:14:29.421Z,84.13
2022-10-18T18:17:03.666Z,84.00
2022-10-18T18:19:32.403Z,83.85
2022-10-18T18:22:01.836Z,83.79
2022-10-18T18:24:30.118Z,83.70
2022-10-18T18:26:58.255Z,83.67
2022-10-18T18:29:27.474Z,83.60
2022-10-18T18:31:55.573Z,83.53
2022-10-18T18:34:23.821Z,83.54
2022-10-18T18:36:52.310Z,83.54
2022-10-18T18:39:26.323Z,83.56
2022-10-18T18:42:03.824Z,83.57
2022-10-18T18:44:32.874Z,83.49
2022-10-18T18:47:03.751Z,83.43
2022-10-18T18:49:35.356Z,83.42
2022-10-18T18:52:03.509Z,83.40
2022-10-18T18:54:31.877Z,83.41
2022-10-18T18:57:05.486Z,83.41
2022-10-18T18:59:35.607Z,83.36
2022-10-18T19:02:03.697Z,83.34
2022-10-18T19:04:31.994Z,83.31
2022-10-18T19:06:59.806Z,83.26
2022-10-18T19:09:31.975Z,83.31
2022-10-18T19:12:01.356Z,83.27
2022-10-18T19:14:29.283Z,83.20
2022-10-18T19:17:05.051Z,83.14
2022-10-18T19:19:33.131Z,83.12
2022-10-18T19:22:05.035Z,83.11
2022-10-18T19:24:35.543Z,83.11
2022-10-18T19:27:11.471Z,83.12
2022-10-18T19:29:41.086Z,83.11
2022-10-18T19:32:12.419Z,83.13
2022-10-18T19:34:40.729Z,83.11
2022-10-18T19:37:13.345Z,83.13
2022-10-18T19:39:45.353Z,83.16
2022-10-18T19:42:18.608Z,83.22
2022-10-18T19:44:55.855Z,83.18
2022-10-18T19:47:24.282Z,83.19
2022-10-18T19:49:53.876Z,83.17
2022-10-18T19:52:21.987Z,83.18
2022-10-18T19:54:50.264Z,83.16
2022-10-18T19:57:23.249Z,83.15
2022-10-18T19:59:56.070Z,83.16
2022-10-18T20:02:24.505Z,83.17
2022-10-18T20:04:54.617Z,83.12
2022-10-18T20:07:22.581Z,83.13
2022-10-18T20:09:50.497Z,83.12
2022-10-18T20:12:20.797Z,83.11
2022-10-18T20:14:53.647Z,83.09
2022-10-18T20:17:22.241Z,83.10
2022-10-18T20:19:49.957Z,83.10
2022-10-18T20:22:17.980Z,83.12
2022-10-18T20:24:45.809Z,83.12
2022-10-18T20:27:13.837Z,83.14
2022-10-18T20:29:41.881Z,83.17
2022-10-18T20:32:09.635Z,83.14
2022-10-18T20:34:37.386Z,83.16
2022-10-18T20:37:05.324Z,83.15
2022-10-18T20:39:34.394Z,83.20
2022-10-18T20:42:20.704Z,83.19
2022-10-18T20:44:48.556Z,83.24
2022-10-18T20:47:16.304Z,83.27
2022-10-18T20:49:44.354Z,83.28
2022-10-18T20:52:17.556Z,83.29
2022-10-18T20:54:45.462Z,83.27
2022-10-18T20:57:13.226Z,83.24
2022-10-18T20:59:43.602Z,83.15
2022-10-18T21:02:12.958Z,83.08
2022-10-18T21:04:42.341Z,83.06
2022-10-18T21:07:10.550Z,82.98
2022-10-18T21:09:38.389Z,82.92
2022-10-18T21:12:06.632Z,82.90
2022-10-18T21:14:34.520Z,82.89
2022-10-18T21:17:02.464Z,82.94
2022-10-18T21:19:30.333Z,82.99
2022-10-18T21:21:58.519Z,83.02
2022-10-18T21:24:27.196Z,83.09
2022-10-18T21:26:55.269Z,83.15
2022-10-18T21:29:24.796Z,83.23
2022-10-18T21:31:55.753Z,83.29
2022-10-18T21:34:23.909Z,83.36
2022-10-18T21:36:51.787Z,83.37
2022-10-18T21:41:55.552Z,83.60
2022-10-18T21:44:23.387Z,83.50
2022-10-18T21:46:51.764Z,83.22
2022-10-18T21:49:19.922Z,83.13
2022-10-18T21:51:47.910Z,83.05
2022-10-18T21:54:16.952Z,83.05
2022-10-18T21:56:44.988Z,83.04
2022-10-18T21:59:13.515Z,83.03
2022-10-18T22:01:42.905Z,83.01
2022-10-18T22:04:24.017Z,82.91
2022-10-18T22:06:52.196Z,82.74
2022-10-18T22:09:21.653Z,82.65
2022-10-18T22:11:52.641Z,82.57
2022-10-18T22:14:21.529Z,82.56
2022-10-18T22:16:49.948Z,82.53
2022-10-18T22:19:17.929Z,82.54
2022-10-18T22:21:45.883Z,82.59
2022-10-18T22:24:13.866Z,82.62
2022-10-18T22:26:43.230Z,82.63
2022-10-18T22:29:16.863Z,82.68
2022-10-18T22:31:48.971Z,82.73
2022-10-18T22:34:27.748Z,82.81
2022-10-18T22:36:56.477Z,82.86
2022-10-18T22:39:24.983Z,82.91
2022-10-18T22:41:56.064Z,82.92
2022-10-18T22:44:24.181Z,82.92
2022-10-18T22:46:52.115Z,82.86
2022-10-18T22:49:21.038Z,82.82
2022-10-18T22:51:48.820Z,82.83
2022-10-18T22:54:16.638Z,82.87
2022-10-18T22:56:44.340Z,82.91
2022-10-18T22:59:12.018Z,83.00
2022-10-18T23:01:39.661Z,83.15
2022-10-18T23:04:07.947Z,83.19
2022-10-18T23:06:36.446Z,83.21
2022-10-18T23:09:07.934Z,83.25
2022-10-18T23:11:36.571Z,83.21
2022-10-18T23:14:06.079Z,83.20
2022-10-18T23:16:34.015Z,83.27
2022-10-18T23:19:02.120Z,83.31
2022-10-18T23:21:29.882Z,83.36
2022-10-18T23:23:58.082Z,83.40
2022-10-18T23:26:28.332Z,83.32
2022-10-18T23:28:56.559Z,83.29
2022-10-18T23:31:30.764Z,83.40
2022-10-18T23:34:03.054Z,83.48
2022-10-18T23:36:32.291Z,83.55
2022-10-18T23:39:00.226Z,83.60
2022-10-18T23:41:28.262Z,83.67
2022-10-18T23:43:56.264Z,83.84
2022-10-18T23:46:24.746Z,83.94
2022-10-18T23:48:52.517Z,83.99
2022-10-18T23:51:20.267Z,84.10
2022-10-18T23:53:48.539Z,84.18
2022-10-18T23:56:16.800Z,84.27
2022-10-18T23:58:45.647Z,84.42
